Decoded Metar for KLUL (LAUREL in MS, USA) (IATA:LUL) | Meteo·Mobile Aviation Weather
aviador You're here:

KLUL Decoded Metar

LAUREL in MS, USA
Report Time2019-06-27 07:55:00
UTC Time2019-06-27 08:12:55
Flight Rules vfr VFR
WindCalm
Visibility9999 m
Phenomena:N/A
Clouds:N/A
Expected CloudBase > 400 ft AGL from Temp-Dew spread
CeilingNone
Temp23°C (ISA +9)
Dew Point22°C (94% RH)
QNH1021 hPa
Density Alt1,378 ft
Elevation299 ft
Report Wrong Elevation
Raw Report
KLUL 270755Z AUTO 00000KT 10SM CLR 23/22 A3016 RMK A02
T02280223=

Extra information for KLUL:More info

Metar Taf Metar & Taf Last 4 Metars F.Rules Stats Wind Profile Meteogram Temp Stats Airport Information Weather charts Add Link Nearby VenuesMetar ALERT Operation Metar Decoded Social comments

AIRNAV info for KLUL